Time;durP1;ratioP1;P1;durP2;ratioP2;P2;SDS_P1;SDS_P2;PMS_P1;PMS_P2;Temp;Humidity;BMP_temperature;BMP_pressure;BME280_temperature;BME280_humidity;BME280_pressure;Samples;Min_cycle;Max_cycle;Signal;HPM_P1;HPM_P2
2023/06/04 00:01:12;;;;;;;8.35;5.53;;;15.30;99.90;;;;;;5071008;28;20375;-62
2023/06/04 00:03:43;;;;;;;7.90;5.68;;;15.30;99.90;;;;;;5070567;28;20435;-62
2023/06/04 00:06:10;;;;;;;7.55;5.22;;;15.20;99.90;;;;;;5067510;28;20098;-63
2023/06/04 00:08:36;;;;;;;10.00;5.55;;;15.20;99.90;;;;;;5070528;28;20042;-62
2023/06/04 00:11:03;;;;;;;8.80;5.75;;;15.20;99.90;;;;;;5070047;28;20036;-62
2023/06/04 00:13:31;;;;;;;14.88;6.63;;;15.20;99.90;;;;;;5071389;28;20055;-62
2023/06/04 00:15:57;;;;;;;9.10;5.53;;;15.10;99.90;;;;;;5070467;28;20032;-62
2023/06/04 00:18:24;;;;;;;8.95;5.93;;;15.10;99.90;;;;;;5068687;28;20036;-62
2023/06/04 00:20:51;;;;;;;9.23;5.57;;;15.10;99.90;;;;;;5071416;28;20033;-62
2023/06/04 00:23:18;;;;;;;8.02;4.90;;;15.10;99.90;;;;;;5058374;28;20037;-63
2023/06/04 00:25:45;;;;;;;8.98;5.15;;;15.00;99.90;;;;;;5063727;28;20047;-62
2023/06/04 00:28:12;;;;;;;7.20;5.38;;;14.90;99.90;;;;;;5071799;28;20059;-62
2023/06/04 00:30:38;;;;;;;11.57;5.53;;;14.90;99.90;;;;;;5070127;28;20409;-62
2023/06/04 00:33:05;;;;;;;11.30;6.38;;;14.80;99.90;;;;;;5069186;28;20109;-63
2023/06/04 00:35:33;;;;;;;10.43;6.00;;;14.60;99.90;;;;;;5063213;28;20491;-63
2023/06/04 00:37:59;;;;;;;;;;;14.50;99.90;;;;;;5064053;28;20036;-63
2023/06/04 00:40:26;;;;;;;7.03;5.70;;;14.40;99.90;;;;;;5055666;28;19927;-63
2023/06/04 00:42:55;;;;;;;8.90;6.18;;;14.40;99.90;;;;;;5058100;28;20033;-63
2023/06/04 00:45:25;;;;;;;9.60;6.18;;;14.30;99.90;;;;;;5066808;28;20511;-63
2023/06/04 00:47:53;;;;;;;14.15;6.07;;;14.30;99.90;;;;;;5060396;28;20497;-62
2023/06/04 00:50:22;;;;;;;10.63;6.05;;;14.20;99.90;;;;;;5064877;28;20051;-63
2023/06/04 00:52:50;;;;;;;12.77;7.15;;;14.30;99.90;;;;;;5060780;28;20041;-63
2023/06/04 00:55:18;;;;;;;12.20;6.50;;;14.20;99.90;;;;;;5065975;28;20386;-62
2023/06/04 00:57:45;;;;;;;8.38;6.07;;;14.30;99.90;;;;;;5057512;28;20040;-63
2023/06/04 01:00:12;;;;;;;8.95;6.10;;;14.30;99.90;;;;;;5063750;28;20090;-63
2023/06/04 01:02:41;;;;;;;;;;;14.30;99.90;;;;;;5063400;28;20497;-62
2023/06/04 01:05:24;;;;;;;10.52;6.40;;;14.30;99.90;;;;;;5056953;28;19931;-63
2023/06/04 01:07:52;;;;;;;11.80;6.45;;;14.20;99.90;;;;;;5059675;28;20037;-62
2023/06/04 01:10:19;;;;;;;12.02;6.55;;;14.20;99.90;;;;;;5060252;28;20135;-62
2023/06/04 01:12:46;;;;;;;11.40;7.13;;;14.10;99.90;;;;;;5058722;28;20041;-62
2023/06/04 01:15:13;;;;;;;9.10;6.35;;;14.10;99.90;;;;;;5058855;28;20044;-64
2023/06/04 01:17:42;;;;;;;11.25;6.63;;;14.10;99.90;;;;;;5069728;28;20040;-64
2023/06/04 01:20:41;;;;;;;9.98;6.80;;;14.10;99.90;;;;;;5069253;28;20064;-64
2023/06/04 01:23:15;;;;;;;11.13;6.47;;;14.10;99.90;;;;;;5065266;28;20071;-64
2023/06/04 01:25:43;;;;;;;8.95;6.55;;;14.10;99.90;;;;;;5058215;28;20089;-63
2023/06/04 01:28:12;;;;;;;8.75;6.43;;;14.10;99.90;;;;;;5058519;28;20041;-63
2023/06/04 01:30:45;;;;;;;10.25;6.05;;;14.10;99.90;;;;;;5060679;28;20051;-64
2023/06/04 01:33:14;;;;;;;9.90;6.93;;;14.00;99.90;;;;;;5064161;28;20041;-64
2023/06/04 01:35:42;;;;;;;10.80;6.88;;;14.00;99.90;;;;;;5063317;28;20155;-64
2023/06/04 01:38:10;;;;;;;9.82;5.97;;;14.00;99.90;;;;;;5060902;28;20128;-64
2023/06/04 01:40:37;;;;;;;12.40;6.47;;;14.00;99.90;;;;;;5065037;28;20032;-64
2023/06/04 01:43:04;;;;;;;9.70;6.38;;;14.00;99.90;;;;;;5069007;28;20555;-64
2023/06/04 01:45:31;;;;;;;11.40;7.03;;;13.90;99.90;;;;;;5066280;28;20036;-62
2023/06/04 01:47:57;;;;;;;11.05;6.38;;;14.00;99.90;;;;;;5066426;28;20037;-63
2023/06/04 01:50:24;;;;;;;9.45;6.25;;;13.90;99.90;;;;;;5064823;28;20088;-63
2023/06/04 01:52:51;;;;;;;10.80;6.78;;;13.90;99.90;;;;;;5055510;28;20134;-64
2023/06/04 01:55:18;;;;;;;12.02;7.05;;;13.80;99.90;;;;;;5054204;28;20082;-64
2023/06/04 01:57:50;;;;;;;9.32;6.50;;;13.70;99.90;;;;;;5054553;28;20079;-64
2023/06/04 02:00:17;;;;;;;9.02;6.78;;;13.70;99.90;;;;;;5067723;28;20131;-64
2023/06/04 02:02:48;;;;;;;9.10;6.45;;;13.70;99.90;;;;;;5055633;28;20116;-63
2023/06/04 02:05:15;;;;;;;13.40;6.75;;;13.70;99.90;;;;;;5055386;28;20041;-64
2023/06/04 02:07:44;;;;;;;9.95;6.68;;;13.70;99.90;;;;;;5055658;28;20037;-64
2023/06/04 02:10:13;;;;;;;9.52;6.50;;;13.70;99.90;;;;;;5054768;28;20471;-64
2023/06/04 02:12:53;;;;;;;11.73;6.63;;;13.70;99.90;;;;;;5053804;28;20041;-64
2023/06/04 02:15:20;;;;;;;9.35;6.95;;;13.70;99.90;;;;;;5053758;28;20049;-64
2023/06/04 02:17:47;;;;;;;12.00;6.82;;;13.70;99.90;;;;;;5052790;28;20071;-63
2023/06/04 02:20:14;;;;;;;10.93;7.22;;;13.70;99.90;;;;;;5053892;28;20040;-63
2023/06/04 02:22:41;;;;;;;;;;;13.70;99.90;;;;;;5062409;28;20063;-64
2023/06/04 02:25:11;;;;;;;10.85;6.97;;;13.70;99.90;;;;;;5053730;28;19927;-63
2023/06/04 02:27:38;;;;;;;14.73;7.20;;;13.70;99.90;;;;;;5054570;28;20036;-64
2023/06/04 02:30:06;;;;;;;10.43;7.00;;;13.80;99.90;;;;;;5055013;28;20041;-64
2023/06/04 02:32:35;;;;;;;9.20;6.65;;;13.80;99.90;;;;;;5062277;28;20591;-64
2023/06/04 02:35:03;;;;;;;10.70;7.28;;;13.90;99.90;;;;;;5067503;28;20045;-63
2023/06/04 02:37:30;;;;;;;8.60;6.60;;;13.90;99.90;;;;;;5054356;28;20494;-64
2023/06/04 02:39:57;;;;;;;10.73;6.78;;;13.90;99.90;;;;;;5066921;28;20041;-63
2023/06/04 02:42:24;;;;;;;9.07;6.03;;;13.90;99.90;;;;;;5068883;28;20244;-63
2023/06/04 02:44:51;;;;;;;11.98;6.80;;;14.10;99.90;;;;;;5069137;28;20039;-64
2023/06/04 02:47:19;;;;;;;8.30;6.93;;;13.90;99.90;;;;;;5070793;28;20131;-64
2023/06/04 02:49:46;;;;;;;10.18;6.00;;;13.90;99.90;;;;;;5069451;28;20115;-63
2023/06/04 02:52:13;;;;;;;13.25;6.25;;;13.90;99.90;;;;;;5073373;28;20056;-62
2023/06/04 02:54:40;;;;;;;9.52;6.22;;;13.90;99.90;;;;;;5071803;28;20098;-63
2023/06/04 02:57:08;;;;;;;10.63;6.75;;;13.90;99.90;;;;;;5069518;28;20049;-64
2023/06/04 02:59:36;;;;;;;8.15;6.30;;;13.70;99.90;;;;;;5070829;28;20075;-63
2023/06/04 03:02:04;;;;;;;9.68;6.63;;;13.70;99.90;;;;;;5070569;28;20045;-63
2023/06/04 03:04:34;;;;;;;9.93;6.80;;;13.70;99.90;;;;;;5071940;28;20090;-64
2023/06/04 03:07:02;;;;;;;9.70;6.45;;;13.70;99.90;;;;;;5070270;28;20497;-64
2023/06/04 03:09:30;;;;;;;9.68;6.63;;;13.70;99.90;;;;;;5071802;28;20051;-64
2023/06/04 03:12:03;;;;;;;10.40;6.53;;;13.70;99.90;;;;;;5068339;28;20584;-64
2023/06/04 03:14:32;;;;;;;8.32;6.20;;;13.70;99.90;;;;;;5070643;28;20401;-64
2023/06/04 03:17:13;;;;;;;9.90;7.18;;;13.70;99.90;;;;;;5065156;28;20072;-64
2023/06/04 03:19:41;;;;;;;10.95;6.68;;;13.70;99.90;;;;;;5069692;28;20041;-63
2023/06/04 03:22:10;;;;;;;10.55;7.20;;;13.60;99.90;;;;;;5067774;28;20056;-63
2023/06/04 03:24:41;;;;;;;10.85;7.05;;;13.50;99.90;;;;;;5073081;28;20131;-63
2023/06/04 03:27:10;;;;;;;8.68;6.53;;;13.50;99.90;;;;;;5070253;28;20090;-63
2023/06/04 03:29:39;;;;;;;10.27;6.72;;;13.60;99.90;;;;;;5063683;28;20060;-64
2023/06/04 03:32:07;;;;;;;8.57;6.60;;;13.60;99.90;;;;;;5071297;28;20040;-63
2023/06/04 03:34:35;;;;;;;14.43;7.55;;;13.60;99.90;;;;;;5071277;28;20044;-63
2023/06/04 03:37:02;;;;;;;10.48;7.10;;;13.70;99.90;;;;;;5071237;28;20048;-64
2023/06/04 03:39:30;;;;;;;7.88;6.35;;;13.70;99.90;;;;;;5070094;28;20090;-62
2023/06/04 03:41:58;;;;;;;10.43;6.10;;;13.70;99.90;;;;;;5069661;28;20044;-63
2023/06/04 03:44:25;;;;;;;11.23;6.82;;;13.70;99.90;;;;;;5068696;28;20098;-63
2023/06/04 03:46:52;;;;;;;9.07;7.03;;;13.70;99.90;;;;;;5070218;28;20036;-63
2023/06/04 03:49:20;;;;;;;7.63;5.95;;;13.70;99.90;;;;;;5070853;28;20059;-63
2023/06/04 03:51:48;;;;;;;8.35;6.55;;;13.70;99.90;;;;;;5060349;28;20040;-64
2023/06/04 03:54:18;;;;;;;;;;;13.80;99.90;;;;;;5064472;28;20040;-63
2023/06/04 03:56:47;;;;;;;11.43;6.50;;;13.80;99.90;;;;;;5070539;28;20392;-63
2023/06/04 03:59:14;;;;;;;8.18;6.53;;;13.80;99.90;;;;;;5069896;28;20045;-64
2023/06/04 04:01:42;;;;;;;11.65;6.70;;;13.90;99.90;;;;;;5068639;28;20389;-63
2023/06/04 04:04:09;;;;;;;13.35;7.03;;;13.90;99.90;;;;;;5069510;28;20059;-63
2023/06/04 04:06:36;;;;;;;;;;;14.00;99.90;;;;;;5067449;28;20039;-63
2023/06/04 04:09:05;;;;;;;11.32;7.00;;;14.00;99.90;;;;;;5070482;28;20109;-63
2023/06/04 04:11:33;;;;;;;8.38;6.40;;;14.00;99.90;;;;;;5070276;28;20131;-63
2023/06/04 04:14:00;;;;;;;10.00;6.13;;;14.10;99.90;;;;;;5068759;28;20041;-64
2023/06/04 04:16:27;;;;;;;8.50;5.80;;;14.10;99.90;;;;;;5067472;28;20484;-64
2023/06/04 04:18:55;;;;;;;8.25;6.13;;;14.20;99.90;;;;;;5069854;28;20037;-63
2023/06/04 04:21:23;;;;;;;9.68;6.45;;;14.20;99.90;;;;;;5070153;28;20066;-63
2023/06/04 04:23:51;;;;;;;8.80;6.07;;;14.30;99.90;;;;;;5070110;28;20051;-64
2023/06/04 04:26:19;;;;;;;11.05;6.55;;;14.30;99.90;;;;;;5068736;28;20139;-64
2023/06/04 04:28:49;;;;;;;9.70;6.15;;;14.30;99.90;;;;;;5070090;28;20086;-63
2023/06/04 04:31:17;;;;;;;9.70;6.38;;;14.40;99.90;;;;;;5070191;28;20045;-64
2023/06/04 04:33:45;;;;;;;7.95;5.45;;;14.40;99.90;;;;;;5064624;28;20507;-64
2023/06/04 04:36:13;;;;;;;7.75;5.90;;;14.40;99.90;;;;;;5066061;28;20461;-64
2023/06/04 04:38:45;;;;;;;8.88;6.45;;;14.50;99.90;;;;;;5069644;28;20877;-64
2023/06/04 04:41:12;;;;;;;9.93;6.32;;;14.50;99.90;;;;;;5070074;28;20044;-64
2023/06/04 04:43:41;;;;;;;10.75;6.57;;;14.60;99.90;;;;;;5067846;28;20082;-62
2023/06/04 04:46:22;;;;;;;8.30;6.13;;;14.60;99.90;;;;;;5068576;28;20040;-64
2023/06/04 04:48:49;;;;;;;7.55;6.03;;;14.60;99.90;;;;;;5069595;28;20097;-63
2023/06/04 04:51:16;;;;;;;12.27;6.25;;;14.70;99.90;;;;;;5066371;28;20051;-64
2023/06/04 04:53:43;;;;;;;10.82;6.63;;;14.80;99.90;;;;;;5071172;28;20127;-64
2023/06/04 04:56:10;;;;;;;7.47;5.88;;;14.90;99.90;;;;;;5069831;28;20382;-62
2023/06/04 04:58:42;;;;;;;9.80;6.88;;;14.90;99.90;;;;;;5069225;28;20482;-64
2023/06/04 05:01:09;;;;;;;10.88;6.72;;;14.90;99.90;;;;;;5064249;28;20036;-63
2023/06/04 05:03:38;;;;;;;10.93;6.22;;;15.00;99.90;;;;;;5069469;28;20052;-64
2023/06/04 05:06:05;;;;;;;10.00;6.63;;;15.00;99.90;;;;;;5068539;28;20094;-64
2023/06/04 05:08:32;;;;;;;9.07;6.65;;;15.00;99.90;;;;;;5065992;28;20085;-64
2023/06/04 05:11:00;;;;;;;11.05;6.15;;;15.00;99.90;;;;;;5069121;28;20043;-64
2023/06/04 05:13:27;;;;;;;10.27;6.78;;;15.00;99.90;;;;;;5069522;28;20051;-64
2023/06/04 05:16:06;;;;;;;8.70;6.15;;;15.10;99.90;;;;;;5066869;28;20045;-64
2023/06/04 05:18:40;;;;;;;11.82;6.70;;;15.20;99.90;;;;;;5069450;28;20053;-64
2023/06/04 05:21:09;;;;;;;11.35;6.70;;;15.30;99.90;;;;;;5075073;28;20052;-63
2023/06/04 05:23:42;;;;;;;9.20;6.20;;;15.40;99.90;;;;;;5068487;28;20037;-63
2023/06/04 05:26:09;;;;;;;10.07;6.70;;;15.50;99.90;;;;;;5068566;28;20072;-64
2023/06/04 05:28:36;;;;;;;12.00;7.53;;;15.60;99.90;;;;;;5069360;28;20036;-64
2023/06/04 05:31:04;;;;;;;12.45;6.45;;;15.60;99.90;;;;;;5067947;28;20044;-64
2023/06/04 05:33:33;;;;;;;12.63;6.90;;;15.70;99.90;;;;;;5066810;28;20040;-63
2023/06/04 05:36:05;;;;;;;9.70;6.65;;;15.50;99.90;;;;;;5051522;28;20041;-62
2023/06/04 05:38:38;;;;;;;12.18;7.03;;;15.50;99.90;;;;;;5065329;28;20047;-64
2023/06/04 05:41:09;;;;;;;11.57;6.80;;;15.50;99.90;;;;;;5058437;28;20037;-64
2023/06/04 05:43:37;;;;;;;9.73;7.32;;;15.40;99.90;;;;;;5069172;28;20371;-63
2023/06/04 05:46:07;;;;;;;11.02;6.97;;;15.40;99.90;;;;;;5064470;28;20037;-62
2023/06/04 05:48:34;;;;;;;11.80;7.03;;;15.40;99.90;;;;;;5069033;28;20560;-62
2023/06/04 05:51:02;;;;;;;;;;;15.50;99.90;;;;;;5068844;28;20049;-64
2023/06/04 05:53:28;;;;;;;10.30;7.30;;;15.50;99.90;;;;;;5052281;28;19963;-64
2023/06/04 05:55:55;;;;;;;8.73;6.75;;;15.60;99.90;;;;;;5065616;28;20139;-64
2023/06/04 05:58:22;;;;;;;10.65;7.13;;;15.70;99.90;;;;;;5052559;28;20052;-63
2023/06/04 06:00:50;;;;;;;14.45;8.40;;;15.70;99.90;;;;;;5069000;28;20044;-63
2023/06/04 06:03:19;;;;;;;14.23;7.63;;;15.80;99.90;;;;;;5067523;28;20048;-64
2023/06/04 06:05:47;;;;;;;11.98;7.07;;;15.80;99.90;;;;;;5067018;28;20055;-62
2023/06/04 06:08:14;;;;;;;11.90;7.25;;;15.80;99.90;;;;;;5069394;28;20028;-64
2023/06/04 06:10:42;;;;;;;11.82;8.07;;;15.80;99.90;;;;;;5069245;28;20693;-64
2023/06/04 06:13:09;;;;;;;13.68;7.63;;;15.90;99.90;;;;;;5070563;28;20086;-64
2023/06/04 06:15:36;;;;;;;10.60;7.45;;;16.00;99.90;;;;;;5072889;28;20040;-64
2023/06/04 06:18:02;;;;;;;11.35;7.00;;;16.10;99.90;;;;;;5072357;28;20078;-64
2023/06/04 06:20:29;;;;;;;10.15;7.47;;;16.20;99.90;;;;;;5066012;28;20497;-64
2023/06/04 06:22:56;;;;;;;11.27;7.32;;;16.20;99.90;;;;;;5070751;28;20060;-64
2023/06/04 06:25:23;;;;;;;;;;;16.40;99.90;;;;;;5072395;28;20102;-64
2023/06/04 06:27:59;;;;;;;9.75;7.43;;;16.50;99.90;;;;;;5070298;28;19974;-64
2023/06/04 06:30:27;;;;;;;13.32;7.38;;;16.70;99.90;;;;;;5070144;28;20131;-64
2023/06/04 06:32:54;;;;;;;9.52;7.30;;;16.80;99.90;;;;;;5073868;28;20392;-64
2023/06/04 06:35:22;;;;;;;9.77;7.22;;;17.00;99.90;;;;;;5071691;28;20060;-64
2023/06/04 06:37:49;;;;;;;11.95;7.20;;;17.00;99.90;;;;;;5067888;28;20037;-64
2023/06/04 06:40:16;;;;;;;13.15;7.03;;;17.20;99.90;;;;;;5063972;28;20040;-64
2023/06/04 06:42:47;;;;;;;12.23;6.90;;;17.10;99.90;;;;;;5068407;28;20046;-64
2023/06/04 06:45:14;;;;;;;11.32;7.07;;;17.20;99.90;;;;;;5067187;28;20040;-64
2023/06/04 06:47:40;;;;;;;10.25;6.45;;;17.20;99.90;;;;;;5071717;28;20496;-64
2023/06/04 06:50:08;;;;;;;8.48;7.00;;;17.20;99.90;;;;;;5071783;28;20394;-64
2023/06/04 06:52:34;;;;;;;;;;;17.20;99.90;;;;;;5070938;28;20032;-64
2023/06/04 06:55:01;;;;;;;11.57;6.60;;;17.00;99.90;;;;;;5071242;28;19931;-64
2023/06/04 06:57:28;;;;;;;9.10;6.22;;;16.90;99.90;;;;;;5072209;28;20044;-63
2023/06/04 06:59:55;;;;;;;11.25;6.63;;;16.90;99.90;;;;;;5072507;28;20404;-63
2023/06/04 07:02:22;;;;;;;9.90;7.60;;;16.80;99.90;;;;;;5070252;28;20037;-64
2023/06/04 07:04:49;;;;;;;;;;;16.70;99.90;;;;;;5071336;28;20037;-64
2023/06/04 07:07:16;;;;;;;9.85;6.53;;;16.90;99.90;;;;;;5071673;28;19930;-64
2023/06/04 07:09:45;;;;;;;8.60;5.60;;;16.90;99.90;;;;;;5071178;28;20047;-64
2023/06/04 07:12:11;;;;;;;;;;;17.00;99.90;;;;;;5071549;28;20040;-64
2023/06/04 07:14:38;;;;;;;12.32;5.95;;;17.00;99.90;;;;;;5071124;28;20369;-64
2023/06/04 07:17:05;;;;;;;11.95;6.03;;;17.00;99.90;;;;;;5069296;28;20056;-64
2023/06/04 07:19:32;;;;;;;8.60;6.00;;;17.10;99.90;;;;;;5070364;28;20090;-63
2023/06/04 07:21:58;;;;;;;13.07;6.82;;;17.30;99.90;;;;;;5072226;28;20041;-63
2023/06/04 07:24:25;;;;;;;8.70;6.45;;;17.50;99.90;;;;;;5071429;28;20040;-64
2023/06/04 07:26:52;;;;;;;9.18;5.95;;;17.60;99.90;;;;;;5072251;28;20111;-64
2023/06/04 07:29:19;;;;;;;9.38;6.30;;;17.70;99.90;;;;;;5069540;28;20293;-64
2023/06/04 07:31:46;;;;;;;10.40;6.40;;;17.90;99.90;;;;;;5071176;28;20530;-64
2023/06/04 07:34:13;;;;;;;7.88;5.80;;;18.00;99.90;;;;;;5071936;28;20043;-62
2023/06/04 07:36:40;;;;;;;10.65;6.97;;;18.20;99.90;;;;;;5069866;28;20048;-64
2023/06/04 07:39:07;;;;;;;8.75;6.72;;;18.40;99.90;;;;;;5071563;28;20055;-64
2023/06/04 07:41:33;;;;;;;;;;;18.30;99.90;;;;;;5071173;28;20120;-64
2023/06/04 07:44:00;;;;;;;7.32;6.07;;;18.50;99.90;;;;;;5071606;28;19920;-64
2023/06/04 07:46:27;;;;;;;10.65;5.95;;;18.50;99.90;;;;;;5069070;28;20039;-64
2023/06/04 07:48:54;;;;;;;7.32;5.95;;;18.60;99.90;;;;;;5068219;28;20500;-64
2023/06/04 07:51:22;;;;;;;7.80;6.15;;;18.60;99.90;;;;;;5070776;28;20044;-64
2023/06/04 07:53:49;;;;;;;8.50;5.63;;;18.80;99.90;;;;;;5070203;28;20048;-64
2023/06/04 07:56:16;;;;;;;9.07;5.13;;;18.80;99.90;;;;;;5072685;28;20127;-64
2023/06/04 07:58:45;;;;;;;8.25;5.30;;;18.90;99.90;;;;;;5072108;28;20037;-65
2023/06/04 08:01:12;;;;;;;7.47;5.85;;;18.90;99.90;;;;;;5068627;28;20532;-63
2023/06/04 08:03:40;;;;;;;6.43;5.43;;;19.00;99.90;;;;;;5069894;28;20041;-64
2023/06/04 08:06:07;;;;;;;7.75;5.90;;;19.10;99.90;;;;;;5071763;28;20064;-64
2023/06/04 08:08:34;;;;;;;7.28;5.57;;;19.20;99.90;;;;;;5071172;28;20070;-65
2023/06/04 08:11:01;;;;;;;7.72;6.18;;;19.20;99.90;;;;;;5070654;28;20069;-64
2023/06/04 08:13:27;;;;;;;10.32;5.40;;;19.20;99.90;;;;;;5069135;28;20056;-64
2023/06/04 08:15:54;;;;;;;9.57;5.60;;;19.20;99.90;;;;;;5071811;28;20041;-64
2023/06/04 08:18:21;;;;;;;10.05;5.70;;;19.20;99.90;;;;;;5071051;28;20093;-65
2023/06/04 08:20:48;;;;;;;8.05;5.30;;;19.00;99.90;;;;;;5071621;28;20439;-65
2023/06/04 08:23:15;;;;;;;9.35;5.75;;;19.00;99.90;;;;;;5065939;28;20547;-64
2023/06/04 08:25:41;;;;;;;9.35;5.38;;;18.80;99.90;;;;;;5071643;28;20045;-64
2023/06/04 08:28:08;;;;;;;9.13;5.45;;;18.60;99.90;;;;;;5069923;28;20079;-64
2023/06/04 08:30:35;;;;;;;7.68;5.53;;;18.70;99.90;;;;;;5071623;28;20063;-64
2023/06/04 08:33:02;;;;;;;8.73;6.00;;;18.90;99.90;;;;;;5062287;28;20044;-64
2023/06/04 08:35:29;;;;;;;11.15;6.00;;;19.00;99.90;;;;;;5072150;28;20068;-64
2023/06/04 08:37:57;;;;;;;8.63;5.82;;;19.10;99.90;;;;;;5064633;28;20049;-64
2023/06/04 08:40:24;;;;;;;10.32;5.68;;;19.30;99.90;;;;;;5071922;28;20044;-64
2023/06/04 08:42:57;;;;;;;10.27;6.13;;;19.60;99.90;;;;;;5071521;28;20046;-64
2023/06/04 08:45:25;;;;;;;12.32;6.63;;;19.80;99.90;;;;;;5070260;28;20041;-63
2023/06/04 08:47:53;;;;;;;11.15;6.65;;;19.90;99.90;;;;;;5071692;28;20393;-64
2023/06/04 08:50:22;;;;;;;12.10;6.40;;;19.80;99.90;;;;;;5060843;28;20068;-64
2023/06/04 08:52:57;;;;;;;8.73;5.53;;;19.80;99.90;;;;;;5068252;28;20028;-64
2023/06/04 08:55:24;;;;;;;11.07;5.75;;;19.70;99.90;;;;;;5070719;28;20118;-64
2023/06/04 08:57:51;;;;;;;13.45;6.15;;;19.90;99.90;;;;;;5071421;28;20054;-64
2023/06/04 09:00:19;;;;;;;10.20;5.40;;;20.20;99.90;;;;;;5064165;28;20183;-64
2023/06/04 09:02:47;;;;;;;8.05;5.18;;;20.40;99.90;;;;;;5071646;28;20051;-64
2023/06/04 09:05:20;;;;;;;9.32;5.53;;;20.50;99.90;;;;;;5070962;28;20079;-64
2023/06/04 09:07:49;;;;;;;7.90;5.55;;;20.60;99.90;;;;;;5055640;28;20033;-64
2023/06/04 09:10:21;;;;;;;12.05;6.32;;;20.30;99.90;;;;;;5063294;28;20051;-64
2023/06/04 09:12:51;;;;;;;7.63;5.57;;;20.30;99.90;;;;;;5071492;28;20041;-64
2023/06/04 09:15:18;;;;;;;9.60;5.55;;;20.20;99.90;;;;;;5071623;28;20049;-64
2023/06/04 09:17:44;;;;;;;10.82;5.40;;;20.40;99.90;;;;;;5068185;28;20076;-64
2023/06/04 09:20:22;;;;;;;12.15;5.97;;;20.80;99.90;;;;;;5064054;28;20049;-63
2023/06/04 09:22:49;;;;;;;13.85;5.70;;;20.70;99.90;;;;;;5063298;28;20519;-64
2023/06/04 09:25:21;;;;;;;9.00;5.80;;;20.80;99.90;;;;;;5064978;28;20119;-64
2023/06/04 09:27:48;;;;;;;7.75;5.35;;;20.90;99.90;;;;;;5070845;28;20040;-64
2023/06/04 09:30:16;;;;;;;6.43;5.25;;;21.10;99.90;;;;;;5059171;28;20072;-63
2023/06/04 09:32:43;;;;;;;11.07;5.60;;;21.30;99.90;;;;;;5060946;28;20478;-63
2023/06/04 09:35:14;;;;;;;11.90;6.22;;;21.30;99.90;;;;;;5070270;28;20044;-64
2023/06/04 09:37:42;;;;;;;9.10;5.15;;;21.30;99.90;;;;;;5070303;28;20110;-64
2023/06/04 09:40:10;;;;;;;19.00;5.50;;;21.20;99.90;;;;;;5070302;28;20554;-64
2023/06/04 09:42:54;;;;;;;8.60;4.68;;;21.10;99.90;;;;;;5063986;28;20056;-63
2023/06/04 09:45:32;;;;;;;8.48;5.22;;;21.10;99.90;;;;;;5075426;28;20075;-64
2023/06/04 09:48:00;;;;;;;9.57;5.53;;;20.90;99.90;;;;;;5074967;28;20040;-64
2023/06/04 09:50:33;;;;;;;7.97;5.45;;;20.90;99.90;;;;;;5073149;28;20040;-64
2023/06/04 09:53:02;;;;;;;7.38;5.50;;;20.90;99.90;;;;;;5063786;28;20048;-64
2023/06/04 09:55:29;;;;;;;7.68;5.60;;;20.90;99.90;;;;;;5075053;28;20048;-63
2023/06/04 09:57:58;;;;;;;10.43;5.25;;;21.00;99.90;;;;;;5065956;28;20124;-64
2023/06/04 10:00:27;;;;;;;6.65;4.95;;;21.00;99.90;;;;;;5074526;28;20047;-64
2023/06/04 10:02:57;;;;;;;8.23;5.22;;;21.00;99.90;;;;;;5065145;28;20091;-64
2023/06/04 10:05:26;;;;;;;8.02;4.78;;;21.00;99.90;;;;;;5074916;28;20045;-63
2023/06/04 10:07:56;;;;;;;7.68;5.43;;;20.80;99.90;;;;;;5066933;28;20043;-64
2023/06/04 10:10:26;;;;;;;7.25;4.90;;;20.60;99.90;;;;;;5068622;28;20047;-63
2023/06/04 10:13:15;;;;;;;17.13;5.53;;;20.50;99.90;;;;;;5072054;28;20036;-63
2023/06/04 10:15:42;;;;;;;8.13;4.65;;;20.40;99.90;;;;;;5072058;28;20051;-63
2023/06/04 10:18:10;;;;;;;10.93;5.22;;;20.50;99.90;;;;;;5073070;28;20032;-64
2023/06/04 10:20:38;;;;;;;7.95;5.03;;;20.60;99.90;;;;;;5072359;28;20051;-63
2023/06/04 10:23:07;;;;;;;7.65;4.30;;;20.70;99.90;;;;;;5073639;28;20036;-63
2023/06/04 10:25:35;;;;;;;8.07;4.70;;;20.80;99.90;;;;;;5073219;28;20065;-63
2023/06/04 10:28:03;;;;;;;13.75;5.40;;;20.80;99.90;;;;;;5072476;28;20111;-63
2023/06/04 10:30:31;;;;;;;9.30;4.93;;;21.00;99.90;;;;;;5069002;28;20054;-63
2023/06/04 10:32:58;;;;;;;7.60;4.90;;;21.20;99.90;;;;;;5073106;28;20037;-63
2023/06/04 10:35:35;;;;;;;5.45;4.68;;;21.40;99.90;;;;;;5065880;28;20052;-63
2023/06/04 10:38:10;;;;;;;6.57;4.65;;;21.70;99.90;;;;;;5059351;28;20087;-63
2023/06/04 10:40:37;;;;;;;10.23;4.65;;;22.00;99.90;;;;;;5059568;28;20044;-63
2023/06/04 10:43:12;;;;;;;9.73;4.38;;;22.00;99.90;;;;;;5058828;28;20049;-64
2023/06/04 10:45:40;;;;;;;6.97;4.05;;;22.00;99.90;;;;;;5060037;28;20037;-65
2023/06/04 10:48:09;;;;;;;5.35;4.30;;;22.00;99.90;;;;;;5059890;28;20037;-64
2023/06/04 10:50:51;;;;;;;7.05;4.35;;;22.00;99.90;;;;;;5058379;28;20506;-63
2023/06/04 10:53:19;;;;;;;7.72;4.47;;;22.20;99.90;;;;;;5058125;28;20036;-64
2023/06/04 10:55:47;;;;;;;10.93;4.35;;;22.40;99.90;;;;;;5056830;28;20045;-64
2023/06/04 10:58:15;;;;;;;5.82;3.95;;;22.40;99.90;;;;;;5055521;28;20041;-64
2023/06/04 11:00:48;;;;;;;5.57;3.55;;;22.30;99.90;;;;;;5057319;28;20103;-64
2023/06/04 11:03:16;;;;;;;6.03;3.85;;;22.20;99.90;;;;;;5061454;28;20151;-64
2023/06/04 11:05:45;;;;;;;8.18;3.80;;;22.30;99.90;;;;;;5073019;28;20033;-65
2023/06/04 11:08:14;;;;;;;6.40;3.63;;;22.20;99.90;;;;;;5070983;28;20044;-63
2023/06/04 11:10:42;;;;;;;4.60;3.80;;;22.10;99.90;;;;;;5073761;28;20037;-63
2023/06/04 11:13:10;;;;;;;6.38;3.85;;;22.00;99.90;;;;;;5071579;28;20036;-63
2023/06/04 11:15:44;;;;;;;7.97;4.03;;;22.00;99.90;;;;;;5066148;28;20124;-63
2023/06/04 11:18:17;;;;;;;9.70;3.65;;;21.90;99.90;;;;;;5062893;28;20044;-64
2023/06/04 11:20:48;;;;;;;6.82;3.42;;;21.70;99.90;;;;;;5066637;28;20045;-64
2023/06/04 11:23:16;;;;;;;7.18;3.83;;;21.60;99.90;;;;;;5071946;28;20504;-63
2023/06/04 11:25:43;;;;;;;5.47;3.90;;;21.50;99.90;;;;;;5067065;28;20048;-64
2023/06/04 11:28:21;;;;;;;7.15;3.88;;;21.50;99.90;;;;;;5061186;28;20033;-62
2023/06/04 11:31:05;;;;;;;7.40;4.03;;;21.50;99.90;;;;;;5073449;28;20033;-63
2023/06/04 11:33:46;;;;;;;8.50;3.83;;;21.50;99.90;;;;;;5060229;28;20045;-63
2023/06/04 11:36:27;;;;;;;7.68;3.65;;;21.50;99.90;;;;;;5068954;28;20040;-63
2023/06/04 11:39:02;;;;;;;8.13;3.78;;;21.60;99.90;;;;;;5072171;28;20429;-63
2023/06/04 11:41:32;;;;;;;7.18;4.07;;;21.60;99.90;;;;;;5066479;28;20488;-63
2023/06/04 11:44:04;;;;;;;10.18;4.15;;;21.60;99.90;;;;;;5072508;28;20048;-63
2023/06/04 11:46:34;;;;;;;7.03;3.83;;;21.50;99.90;;;;;;5065546;28;20044;-63
2023/06/04 11:49:04;;;;;;;5.25;3.33;;;21.50;99.90;;;;;;5065536;28;20032;-63
2023/06/04 11:51:32;;;;;;;6.65;4.25;;;21.50;99.90;;;;;;5070404;28;20409;-64
2023/06/04 11:53:59;;;;;;;5.07;3.45;;;21.70;99.90;;;;;;5071497;28;20032;-63
2023/06/04 11:56:26;;;;;;;6.15;3.78;;;21.70;99.90;;;;;;5067575;28;20054;-63
2023/06/04 11:58:55;;;;;;;8.43;3.90;;;21.80;99.90;;;;;;5071820;28;20043;-63
2023/06/04 12:01:22;;;;;;;9.35;4.13;;;21.80;99.70;;;;;;5069633;28;20037;-63
2023/06/04 12:03:49;;;;;;;6.68;3.47;;;21.70;99.20;;;;;;5071002;28;20090;-63
2023/06/04 12:06:21;;;;;;;6.22;3.63;;;21.80;99.90;;;;;;5069387;28;20040;-63
2023/06/04 12:08:53;;;;;;;5.47;3.65;;;21.80;99.90;;;;;;5062671;28;20044;-63
2023/06/04 12:11:33;;;;;;;6.60;3.88;;;22.10;99.80;;;;;;5068959;28;20064;-64
2023/06/04 12:14:06;;;;;;;7.13;4.30;;;22.30;99.90;;;;;;5060356;28;20048;-64
2023/06/04 12:16:33;;;;;;;7.13;3.80;;;22.60;99.90;;;;;;5065749;28;20040;-63
2023/06/04 12:19:07;;;;;;;6.95;3.95;;;22.90;99.90;;;;;;5069684;28;20072;-63
2023/06/04 12:21:34;;;;;;;6.32;4.03;;;22.90;98.60;;;;;;5068727;28;20033;-64
2023/06/04 12:24:11;;;;;;;7.88;3.85;;;22.90;98.60;;;;;;5070935;28;20045;-63
2023/06/04 12:26:43;;;;;;;6.85;3.97;;;23.00;99.20;;;;;;5062737;28;20060;-63
2023/06/04 12:29:15;;;;;;;9.82;3.95;;;22.90;98.40;;;;;;5069576;28;20105;-63
2023/06/04 12:31:45;;;;;;;8.15;3.92;;;22.60;98.40;;;;;;5067679;28;20044;-64
2023/06/04 12:34:15;;;;;;;6.78;4.00;;;22.40;99.10;;;;;;5066947;28;20051;-63
2023/06/04 12:36:42;;;;;;;7.35;4.05;;;22.30;99.90;;;;;;5070557;28;20489;-63
2023/06/04 12:39:09;;;;;;;;;;;22.30;99.20;;;;;;5070847;28;20106;-63
2023/06/04 12:41:36;;;;;;;6.55;3.95;;;22.40;99.70;;;;;;5071081;28;19926;-64
2023/06/04 12:44:03;;;;;;;5.78;4.15;;;22.20;99.10;;;;;;5066911;28;20051;-63
2023/06/04 12:46:30;;;;;;;6.60;3.75;;;22.00;98.80;;;;;;5070383;28;20043;-63
2023/06/04 12:48:56;;;;;;;5.70;3.70;;;22.00;98.60;;;;;;5069411;28;20067;-64
2023/06/04 12:51:23;;;;;;;6.75;3.60;;;22.00;98.70;;;;;;5070460;28;20044;-64
2023/06/04 12:53:51;;;;;;;7.28;4.32;;;22.10;98.50;;;;;;5066180;28;20044;-63